Latest Weather Observations for Mount Crawford

IDS60901

Issued at 4:31 pm CDT Monday 18 February 2019 (issued every 10 minutes, with the page automatically refreshed every 10 minutes)

About weather observations | Map of Adelaide area stations | Latest observations for Adelaide area | Other Formats
Station Details ID: 023878 Name: MOUNT CRAWFORD AWS Lat: -34.73 Lon: 138.93 Height: 525.0 m
Data from the previous 72 hours. | See also: Recent months at Mount Crawford
Date/Time
CDT
Temp
°C
App
Temp
°C
Dew
Point
°C
Rel
Hum
%
Delta-T
°C
Wind Press
QNH
hPa
Press
MSL
hPa
Rain since
9am
mm
Dir  Spd
km/h
Gust
km/h
Spd
kts
Gust
kts
18/04:30pm 23.2 19.2 8.1 38 8.2 SW 19 32 10 17 1010.6 1008.3 0.0
18/04:00pm 23.9 20.0 8.7 38 8.3 SW 19 28 10 15 1010.6 1008.3 0.0
18/03:30pm 23.9 20.4 10.2 42 7.7 WSW 19 30 10 16 1010.4 1008.1 0.0
18/03:00pm 23.4 20.4 10.5 44 7.3 WSW 17 28 9 15 1010.5 1008.2 0.0
18/02:30pm 23.9 21.9 10.2 42 7.7 WSW 11 20 6 11 1010.6 1008.3 0.0
18/02:00pm 23.0 20.1 9.8 43 7.4 WSW 15 30 8 16 1010.8 1008.6 0.0
18/01:30pm 22.1 18.6 8.9 43 7.2 SSW 17 30 9 16 1010.8 1008.6 0.0
18/01:00pm 20.0 16.3 10.1 53 5.5 S 20 28 11 15 1011.1 1008.8 0.0
18/12:30pm 19.1 16.2 10.9 59 4.6 SSW 17 26 9 14 1011.4 1009.1 0.0
18/12:00pm 18.5 15.4 11.6 64 3.9 S 19 26 10 14 1011.5 1009.2 0.0
18/11:30am 19.8 16.6 11.3 58 4.8 SSW 19 28 10 15 1011.1 1008.8 0.0
18/11:00am 17.9 14.9 12.1 69 3.3 S 19 26 10 14 1011.2 1008.9 0.0
18/10:30am 16.5 13.6 12.3 76 2.4 SSW 19 24 10 13 1010.9 1008.7 0.0
18/10:00am 16.1 13.6 12.3 78 2.1 S 17 22 9 12 1010.6 1008.3 0.0
18/09:30am 15.8 12.4 12.4 80 1.9 SE 22 32 12 17 1009.9 1007.6 0.0
18/09:00am 15.4 12.1 12.7 84 1.5 SSE 22 30 12 16 1010.0 1007.7 0.0
18/08:30am 15.2 11.6 13.1 87 1.2 SSE 24 33 13 18 1009.7 1007.4 0.0
18/08:00am 15.0 10.4 13.4 90 0.9 SSE 30 43 16 23 1009.3 1007.0 0.0
18/07:30am 14.8 10.1 13.2 90 0.9 SSE 30 37 16 20 1009.4 1007.1 0.0
18/07:00am 15.0 10.8 13.4 90 0.9 SSE 28 39 15 21 1008.7 1006.4 0.0
18/06:30am 15.1 10.4 13.3 89 1.0 SSE 30 41 16 22 1008.0 1005.7 0.0
18/06:00am 15.3 10.1 13.5 89 1.0 SE 33 43 18 23 1007.5 1005.2 0.0
18/05:30am 15.5 10.2 13.2 86 1.3 SE 33 48 18 26 1007.3 1004.9 0.0
18/05:26am 15.6 10.3 13.1 85 1.4 SE 33 48 18 26 1007.2 1004.8 0.0
18/05:00am 16.7 12.3 12.8 78 2.2 SE 28 41 15 22 1007.5 1005.2 0.0
18/04:30am 18.5 12.9 10.3 59 4.5 ESE 30 37 16 20 1006.6 1004.3 0.0
18/04:00am 19.8 14.5 9.7 52 5.5 ESE 28 35 15 19 1007.2 1004.8 0.0
18/03:30am 21.1 15.5 7.3 41 7.3 ESE 26 32 14 17 1007.3 1004.9 0.0
18/03:00am 22.7 16.3 5.2 32 9.0 ESE 28 33 15 18 1007.6 1005.3 0.0
18/02:30am 23.4 18.5 4.9 30 9.5 E 20 26 11 14 1007.9 1005.6 0.0
18/02:00am 24.3 18.9 4.6 28 10.1 E 22 30 12 16 1007.9 1005.6 0.0
18/01:30am 24.6 19.1 3.8 26 10.5 E 22 26 12 14 1008.6 1006.3 0.0
18/01:00am 24.7 19.5 3.4 25 10.7 ENE 20 22 11 12 1009.3 1007.0 0.0
18/12:30am 24.3 18.8 1.9 23 10.9 E 20 24 11 13 1008.9 1006.6 0.0
18/12:00am 24.2 19.4 2.4 24 10.7 E 17 20 9 11 1009.2 1006.9 0.0
 
Date/Time
CDT
Temp
°C
App
Temp
°C
Dew
Point
°C
Rel
Hum
%
Delta-T
°C
Wind Press
QNH
hPa
Press
MSL
hPa
Rain since
9am
mm
Dir  Spd
km/h
Gust
km/h
Spd
kts
Gust
kts
17/11:30pm 24.2 19.8 2.9 25 10.6 ESE 15 17 8 9 1009.6 1007.3 0.0
17/11:00pm 23.6 19.3 3.5 27 10.0 E 15 19 8 10 1010.0 1007.7 0.0
17/10:30pm 23.9 20.1 3.8 27 10.1 ESE 13 17 7 9 1010.1 1007.8 0.0
17/10:00pm 24.5 20.2 3.2 25 10.6 SE 15 19 8 10 1010.1 1007.8 0.0
17/09:30pm 25.5 20.5 1.6 21 11.7 SE 17 20 9 11 1010.1 1007.8 0.0
17/09:00pm 27.4 22.9 -0.6 16 13.3 SSE 13 17 7 9 1009.9 1007.6 0.0
17/08:30pm 26.6 22.5 -0.4 17 12.8 SE 11 13 6 7 1009.8 1007.5 0.0
17/08:00pm 27.2 23.0 -0.8 16 13.3 SSW 11 13 6 7 1010.0 1007.7 0.0
17/07:30pm 27.9 23.3 -1.1 15 13.7 SW 13 17 7 9 1010.1 1007.8 0.0
17/07:00pm 28.5 24.0 -0.6 15 14.0 SW 13 17 7 9 1010.1 1007.8 0.0
17/06:30pm 28.7 24.2 -0.5 15 14.1 WSW 13 20 7 11 1010.2 1007.9 0.0
17/06:00pm 29.5 24.3 0.2 15 14.4 W 17 24 9 13 1010.1 1007.8 0.0
17/05:30pm 30.6 25.0 1.0 15 14.8 W 20 33 11 18 1010.0 1007.7 0.0
17/05:00pm 32.1 25.8 -0.9 12 16.1 WNW 22 33 12 18 1010.0 1007.7 0.0
17/04:30pm 32.5 26.9 -3.0 10 16.8 W 17 28 9 15 1010.3 1008.0 0.0
17/04:00pm 33.1 27.2 -2.6 10 17.1 NW 19 30 10 16 1010.6 1008.3 0.0
17/03:30pm 32.6 26.9 -0.5 12 16.4 NNW 19 32 10 17 1010.7 1008.4 0.0
17/03:00pm 31.9 27.2 3.0 16 15.1 WNW 17 28 9 15 1011.3 1009.0 0.0
17/02:30pm 31.2 26.1 0.6 14 15.3 NNW 17 26 9 14 1011.8 1009.5 0.0
17/02:00pm 31.5 28.2 6.5 21 13.8 ENE 13 20 7 11 1012.3 1010.0 0.0
17/01:30pm 29.2 24.8 6.6 24 12.3 NE 19 26 10 14 1012.8 1010.6 0.0
17/01:00pm 27.1 22.7 6.5 27 11.1 ENE 19 28 10 15 1013.3 1011.0 0.0
17/12:30pm 27.8 24.2 6.6 26 11.5 E 15 20 8 11 1013.8 1011.5 0.0
17/12:00pm 27.2 23.6 4.9 24 11.7 NE 13 20 7 11 1014.2 1012.0 0.0
17/11:30am 26.3 22.3 2.9 22 11.8 ENE 13 19 7 10 1014.7 1012.5 0.0
17/11:00am 25.1 20.8 1.3 21 11.5 E 13 17 7 9 1014.8 1012.6 0.0
17/10:30am 24.7 20.8 0.9 21 11.4 ESE 11 13 6 7 1015.1 1012.8 0.0
17/10:00am 24.1 20.3 -0.9 19 11.5 E 9 13 5 7 1015.1 1012.8 0.0
17/09:30am 22.8 17.3 -2.0 19 11.1 ENE 17 22 9 12 1014.4 1012.2 0.0
17/09:00am 22.4 17.2 -3.1 18 11.1 E 15 19 8 10 1014.5 1012.3 0.0
17/08:30am 20.5 15.4 -1.9 22 9.8 E 15 19 8 10 1014.5 1012.3 0.0
17/08:00am 19.7 14.2 -2.0 23 9.5 E 17 24 9 13 1014.2 1012.0 0.0
17/07:30am 19.4 14.0 -4.1 20 9.8 E 15 20 8 11 1014.1 1011.8 0.0
17/07:00am 19.9 14.9 -4.4 19 10.1 E 13 15 7 8 1014.0 1011.7 0.0
17/06:30am 20.8 15.9 -3.0 20 10.3 ESE 13 15 7 8 1013.9 1011.6 0.0
17/06:00am 21.2 16.4 -2.6 20 10.4 ESE 13 17 7 9 1013.9 1011.6 0.0
17/05:30am 21.1 16.1 -4.1 18 10.7 ESE 13 17 7 9 1013.7 1011.4 0.0
17/05:00am 20.1 14.2 -5.7 17 10.5 ESE 17 20 9 11 1013.5 1011.2 0.0
17/04:30am 20.9 15.8 -5.0 17 10.7 ESE 13 15 7 8 1013.8 1011.5 0.0
17/04:00am 21.0 15.8 -2.8 20 10.3 SE 15 19 8 10 1014.0 1011.7 0.0
17/03:30am 20.4 14.3 -4.0 19 10.3 SSE 19 22 10 12 1014.3 1012.1 0.0
17/03:00am 20.3 14.4 -5.5 17 10.5 ESE 17 20 9 11 1014.4 1012.2 0.0
17/02:30am 20.5 14.6 -5.4 17 10.6 SE 17 20 9 11 1014.6 1012.4 0.0
17/02:00am 20.6 15.1 -1.8 22 9.9 SE 17 20 9 11 1014.8 1012.6 0.0
17/01:30am 20.0 13.8 -5.0 18 10.3 ESE 19 22 10 12 1015.3 1013.0 0.0
17/01:00am 20.2 13.7 -5.6 17 10.5 SE 20 26 11 14 1015.7 1013.4 0.0
17/12:30am 19.8 13.4 -5.2 18 10.2 SE 20 24 11 13 1016.2 1014.0 0.0
17/12:00am 19.5 13.3 -3.4 21 9.7 SE 20 24 11 13 1016.4 1014.2 0.0
 
Date/Time
CDT
Temp
°C
App
Temp
°C
Dew
Point
°C
Rel
Hum
%
Delta-T
°C
Wind Press
QNH
hPa
Press
MSL
hPa
Rain since
9am
mm
Dir  Spd
km/h
Gust
km/h
Spd
kts
Gust
kts
16/11:30pm 19.4 13.2 -2.8 22 9.5 SE 20 26 11 14 1016.7 1014.5 0.0
16/11:00pm 19.2 13.7 1.7 31 8.2 SE 20 24 11 13 1017.1 1014.8 0.0
16/10:30pm 19.6 14.7 5.3 39 7.2 SE 20 26 11 14 1017.1 1014.8 0.0
16/10:00pm 20.2 15.3 6.9 42 6.9 SSE 22 28 12 15 1017.1 1014.8 0.0
16/09:30pm 20.4 15.1 6.7 41 7.1 SSE 24 30 13 16 1016.9 1014.7 0.0
16/09:00pm 20.7 15.9 5.5 37 7.7 SSE 20 28 11 15 1016.7 1014.5 0.0
16/08:30pm 21.1 17.2 8.7 45 6.7 SE 19 26 10 14 1016.7 1014.5 0.0
16/08:00pm 22.6 19.3 9.4 43 7.3 SSE 17 20 9 11 1016.5 1014.3 0.0
16/07:30pm 24.9 21.8 10.4 40 8.2 SSE 17 24 9 13 1016.2 1014.0 0.0
16/07:00pm 26.7 23.8 9.5 34 9.7 SSE 15 22 8 12 1015.9 1013.7 0.0
16/06:30pm 28.2 25.9 7.4 27 11.4 SSW 9 20 5 11 1016.0 1013.8 0.0
16/06:00pm 28.5 23.5 3.4 20 12.9 WSW 19 30 10 16 1015.9 1013.7 0.0
16/05:30pm 29.0 23.1 3.8 20 13.1 W 24 32 13 17 1015.8 1013.5 0.0
16/05:00pm 28.9 23.1 4.4 21 12.8 W 24 33 13 18 1015.7 1013.4 0.0
16/04:30pm 29.4 24.4 4.8 21 13.0 W 20 30 11 16 1015.9 1013.7 0.0
16/04:00pm 28.5 24.7 4.1 21 12.7 W 13 26 7 14 1016.2 1014.0 0.0
16/03:30pm 28.8 25.1 4.3 21 12.8 WSW 13 22 7 12 1016.6 1014.4 0.0
16/03:00pm 28.8 24.8 2.9 19 13.2 SW 13 24 7 13 1016.9 1014.7 0.0
16/02:30pm 29.6 25.7 3.6 19 13.5 WNW 13 24 7 13 1017.5 1015.2 0.0
16/02:00pm 28.7 25.6 3.5 20 13.0 WSW 9 19 5 10 1017.8 1015.6 0.0
16/01:30pm 28.0 23.1 2.2 19 12.9 W 17 30 9 16 1018.2 1016.0 0.0
16/01:00pm 26.5 21.9 1.7 20 12.2 W 15 24 8 13 1018.5 1016.3 0.0
16/12:30pm 26.7 22.5 3.9 23 11.7 W 15 24 8 13 1018.9 1016.7 0.0
16/12:00pm 26.2 22.5 4.6 25 11.2 NW 13 24 7 13 1019.6 1017.4 0.0
16/11:30am 25.3 21.6 4.4 26 10.7 NW 13 20 7 11 1019.9 1017.7 0.0
16/11:00am 24.7 20.7 5.0 28 10.2 NW 15 22 8 12 1020.0 1017.8 0.0
16/10:30am 24.2 21.3 4.6 28 10.0 NNE 9 13 5 7 1020.1 1017.9 0.0
16/10:00am 23.4 20.9 4.9 30 9.5 ENE 7 13 4 7 1020.1 1017.9 0.0
16/09:30am 22.6 19.7 4.6 31 9.1 ENE 9 15 5 8 1020.0 1017.8 0.0
16/09:00am 21.6 18.4 2.8 29 9.1 E 9 13 5 7 1020.1 1017.9 0.0
16/08:30am 20.8 17.2 3.1 31 8.6 ESE 11 13 6 7 1019.9 1017.7 0.0
16/08:00am 19.6 15.8 1.6 30 8.4 SE 11 15 6 8 1019.7 1017.5 0.0
16/07:30am 18.1 13.0 -1.7 26 8.5 SE 15 20 8 11 1019.4 1017.2 0.0
16/07:00am 17.0 11.5 -2.1 27 8.1 SE 17 20 9 11 1019.3 1017.1 0.0
16/06:30am 16.8 11.4 -1.3 29 7.8 SE 17 20 9 11 1018.8 1016.6 0.0
16/06:00am 16.3 10.3 -2.7 27 7.9 SE 19 22 10 12 1018.6 1016.4 0.0
16/05:30am 16.2 10.6 -0.1 33 7.1 SE 19 22 10 12 1018.7 1016.5 0.0
16/05:00am 16.0 10.5 2.1 39 6.4 SE 20 28 11 15 1018.8 1016.6 0.0
16/04:30am 16.3 10.5 2.3 39 6.5 SE 22 30 12 16 1019.2 1016.9 0.0
16/04:00am 15.5 9.3 4.3 47 5.4 SSE 26 32 14 17 1019.5 1017.3 0.0
16/03:30am 14.4 9.3 6.0 57 4.1 SE 22 30 12 16 1019.5 1017.3 0.0
16/03:00am 14.5 8.6 5.8 56 4.3 SSE 26 35 14 19 1019.7 1017.5 0.0
16/02:30am 14.8 9.2 5.3 53 4.6 SE 24 33 13 18 1019.9 1017.7 0.0
16/02:00am 14.7 9.8 6.8 59 4.0 SE 22 28 12 15 1020.1 1017.9 0.0
16/01:30am 15.1 10.3 7.2 59 4.0 SE 22 28 12 15 1020.5 1018.3 0.0
16/01:00am 15.6 10.4 7.1 57 4.3 SE 24 32 13 17 1020.7 1018.5 0.0
16/12:30am 15.5 9.2 7.3 58 4.2 SSE 30 35 16 19 1020.8 1018.6 0.0
16/12:00am 14.8 9.3 9.2 69 2.9 SSE 28 35 15 19 1021.2 1019.0 0.0
 
Date/Time
CDT
Temp
°C
App
Temp
°C
Dew
Point
°C
Rel
Hum
%
Delta-T
°C
Wind Press
QNH
hPa
Press
MSL
hPa
Rain since
9am
mm
Dir  Spd
km/h
Gust
km/h
Spd
kts
Gust
kts
15/11:30pm 14.8 9.4 9.6 71 2.7 SSE 28 37 15 20 1021.4 1019.2 0.0
15/11:00pm 14.3 9.3 9.7 74 2.4 SE 26 32 14 17 1021.6 1019.4 0.0
15/10:30pm 14.5 10.3 9.9 74 2.4 SE 22 32 12 17 1021.6 1019.4 0.0
15/10:00pm 14.8 9.5 10.0 73 2.6 SE 28 35 15 19 1021.6 1019.4 0.0
15/09:30pm 15.3 10.6 10.5 73 2.6 SE 26 35 14 19 1021.4 1019.2 0.0
15/09:00pm 16.3 11.6 10.6 69 3.1 SSE 26 33 14 18 1020.9 1018.7 0.0
15/08:30pm 17.6 14.1 10.9 65 3.7 SSE 20 28 11 15 1020.7 1018.5 0.0
15/08:00pm 19.2 16.2 10.7 58 4.7 SE 17 26 9 14 1020.6 1018.4 0.0
15/07:30pm 21.2 17.6 10.4 50 6.0 SSE 20 28 11 15 1020.2 1018.0 0.0
15/07:00pm 23.0 18.9 8.7 40 7.8 SE 20 28 11 15 1020.1 1017.9 0.0
15/06:30pm 24.1 19.2 8.5 37 8.5 SSE 24 33 13 18 1020.0 1017.8 0.0
15/06:00pm 25.7 21.6 7.8 32 9.7 SE 19 30 10 16 1020.1 1017.9 0.0
15/05:30pm 26.0 21.6 7.6 31 10.0 SSW 20 41 11 22 1019.9 1017.7 0.0
15/05:00pm 26.2 21.3 6.8 29 10.4 WSW 22 33 12 18 1019.9 1017.7 0.0

Latest Capital City Observations: Canberra | Sydney | Melbourne | Brisbane | Adelaide | Perth | Hobart | Darwin

Other formats

Comma delimited format used in spreadsheet applications
http://www.bom.gov.au/fwo/IDS60901/IDS60901.94678.axf

JavaScript Object Notation format (JSON) in row-major order
http://www.bom.gov.au/fwo/IDS60901/IDS60901.94678.json

Data quality

Most of these data are generated automatically and are frequently updated. Quality checks on data are not normally performed. It is possible for incorrect values to appear. Refer to information at About Latest Weather Observations and please check the disclaimer before using these data.